sensor_id;sensor_type;location;lat;lon;timestamp;temperature;humidity
71173;DHT22;58875;51.996;4.504;2022-11-20T00:00:45;0.58;75.24
71173;DHT22;58875;51.996;4.504;2022-11-20T00:03:10;0.58;75.43
71173;DHT22;58875;51.996;4.504;2022-11-20T00:05:36;0.58;75.54
71173;DHT22;58875;51.996;4.504;2022-11-20T00:08:01;0.56;75.79
71173;DHT22;58875;51.996;4.504;2022-11-20T00:10:27;0.54;75.96
71173;DHT22;58875;51.996;4.504;2022-11-20T00:12:53;0.50;75.76
71173;DHT22;58875;51.996;4.504;2022-11-20T00:15:18;0.56;76.03
71173;DHT22;58875;51.996;4.504;2022-11-20T00:17:44;0.56;75.68
71173;DHT22;58875;51.996;4.504;2022-11-20T00:20:10;0.43;76.08
71173;DHT22;58875;51.996;4.504;2022-11-20T00:22:35;0.47;76.64
71173;DHT22;58875;51.996;4.504;2022-11-20T00:25:01;0.46;76.40
71173;DHT22;58875;51.996;4.504;2022-11-20T00:27:26;0.49;76.18
71173;DHT22;58875;51.996;4.504;2022-11-20T00:29:52;0.47;76.14
71173;DHT22;58875;51.996;4.504;2022-11-20T00:32:17;0.44;76.14
71173;DHT22;58875;51.996;4.504;2022-11-20T00:34:43;0.44;76.30
71173;DHT22;58875;51.996;4.504;2022-11-20T00:37:09;0.44;76.16
71173;DHT22;58875;51.996;4.504;2022-11-20T00:39:34;0.37;75.72
71173;DHT22;58875;51.996;4.504;2022-11-20T00:41:59;0.30;75.96
71173;DHT22;58875;51.996;4.504;2022-11-20T00:44:25;0.30;76.29
71173;DHT22;58875;51.996;4.504;2022-11-20T00:46:51;0.31;76.66
71173;DHT22;58875;51.996;4.504;2022-11-20T00:49:16;0.37;76.32
71173;DHT22;58875;51.996;4.504;2022-11-20T00:51:42;0.29;76.07
71173;DHT22;58875;51.996;4.504;2022-11-20T00:54:07;0.31;76.24
71173;DHT22;58875;51.996;4.504;2022-11-20T00:56:33;0.30;76.27
71173;DHT22;58875;51.996;4.504;2022-11-20T00:59:00;0.27;75.94
71173;DHT22;58875;51.996;4.504;2022-11-20T01:01:26;0.29;76.15
71173;DHT22;58875;51.996;4.504;2022-11-20T01:03:56;0.31;76.74
71173;DHT22;58875;51.996;4.504;2022-11-20T01:06:25;0.26;76.57
71173;DHT22;58875;51.996;4.504;2022-11-20T01:08:53;0.26;76.68
71173;DHT22;58875;51.996;4.504;2022-11-20T01:11:22;0.33;76.21
71173;DHT22;58875;51.996;4.504;2022-11-20T01:13:50;0.27;76.07
71173;DHT22;58875;51.996;4.504;2022-11-20T01:16:20;0.26;76.21
71173;DHT22;58875;51.996;4.504;2022-11-20T01:18:48;0.29;76.42
71173;DHT22;58875;51.996;4.504;2022-11-20T01:21:18;0.33;76.09
71173;DHT22;58875;51.996;4.504;2022-11-20T01:23:45;0.29;75.76
71173;DHT22;58875;51.996;4.504;2022-11-20T01:26:16;0.21;76.32
71173;DHT22;58875;51.996;4.504;2022-11-20T01:28:43;0.21;76.06
71173;DHT22;58875;51.996;4.504;2022-11-20T01:31:14;0.20;76.19
71173;DHT22;58875;51.996;4.504;2022-11-20T01:33:42;0.26;76.41
71173;DHT22;58875;51.996;4.504;2022-11-20T01:38:45;0.24;76.18
71173;DHT22;58875;51.996;4.504;2022-11-20T01:41:14;0.24;75.86
71173;DHT22;58875;51.996;4.504;2022-11-20T01:44:00;0.20;75.90
71173;DHT22;58875;51.996;4.504;2022-11-20T01:46:26;0.21;75.92
71173;DHT22;58875;51.996;4.504;2022-11-20T01:48:59;0.16;76.36
71173;DHT22;58875;51.996;4.504;2022-11-20T01:54:03;0.09;76.59
71173;DHT22;58875;51.996;4.504;2022-11-20T01:56:36;0.12;76.66
71173;DHT22;58875;51.996;4.504;2022-11-20T01:59:05;0.10;76.78
71173;DHT22;58875;51.996;4.504;2022-11-20T02:01:33;0.06;77.05
71173;DHT22;58875;51.996;4.504;2022-11-20T02:04:00;0.07;77.09
71173;DHT22;58875;51.996;4.504;2022-11-20T02:06:39;0.10;77.09
71173;DHT22;58875;51.996;4.504;2022-11-20T02:09:06;0.12;76.81
71173;DHT22;58875;51.996;4.504;2022-11-20T02:11:31;0.02;76.34
71173;DHT22;58875;51.996;4.504;2022-11-20T02:13:58;-0.07;76.61
71173;DHT22;58875;51.996;4.504;2022-11-20T02:16:25;-0.12;77.16
71173;DHT22;58875;51.996;4.504;2022-11-20T02:18:54;-0.18;77.62
71173;DHT22;58875;51.996;4.504;2022-11-20T02:24:19;-0.14;77.17
71173;DHT22;58875;51.996;4.504;2022-11-20T02:27:00;-0.15;77.02
71173;DHT22;58875;51.996;4.504;2022-11-20T02:29:32;-0.19;76.97
71173;DHT22;58875;51.996;4.504;2022-11-20T02:32:00;-0.12;77.19
71173;DHT22;58875;51.996;4.504;2022-11-20T02:34:27;-0.15;77.32
71173;DHT22;58875;51.996;4.504;2022-11-20T02:36:56;-0.11;77.47
71173;DHT22;58875;51.996;4.504;2022-11-20T02:39:25;-0.15;77.60
71173;DHT22;58875;51.996;4.504;2022-11-20T02:41:53;-0.22;77.73
71173;DHT22;58875;51.996;4.504;2022-11-20T02:44:19;-0.18;77.87
71173;DHT22;58875;51.996;4.504;2022-11-20T02:46:45;-0.15;77.43
71173;DHT22;58875;51.996;4.504;2022-11-20T02:49:11;-0.17;77.41
71173;DHT22;58875;51.996;4.504;2022-11-20T02:51:37;-0.18;77.43
71173;DHT22;58875;51.996;4.504;2022-11-20T02:54:03;-0.15;77.13
71173;DHT22;58875;51.996;4.504;2022-11-20T02:56:28;-0.17;76.94
71173;DHT22;58875;51.996;4.504;2022-11-20T02:58:54;-0.26;77.19
71173;DHT22;58875;51.996;4.504;2022-11-20T03:01:20;-0.25;77.28
71173;DHT22;58875;51.996;4.504;2022-11-20T03:03:46;-0.19;76.98
71173;DHT22;58875;51.996;4.504;2022-11-20T03:06:15;-0.21;77.20
71173;DHT22;58875;51.996;4.504;2022-11-20T03:08:41;-0.21;77.65
71173;DHT22;58875;51.996;4.504;2022-11-20T03:11:07;-0.17;77.67
71173;DHT22;58875;51.996;4.504;2022-11-20T03:13:34;-0.12;77.32
71173;DHT22;58875;51.996;4.504;2022-11-20T03:16:08;-0.18;77.30
71173;DHT22;58875;51.996;4.504;2022-11-20T03:18:34;-0.15;77.31
71173;DHT22;58875;51.996;4.504;2022-11-20T03:20:59;-0.11;76.98
71173;DHT22;58875;51.996;4.504;2022-11-20T03:23:25;-0.15;76.80
71173;DHT22;58875;51.996;4.504;2022-11-20T03:25:51;-0.21;76.90
71173;DHT22;58875;51.996;4.504;2022-11-20T03:28:16;-0.23;77.03
71173;DHT22;58875;51.996;4.504;2022-11-20T03:30:42;-0.22;76.93
71173;DHT22;58875;51.996;4.504;2022-11-20T03:33:07;-0.28;76.75
71173;DHT22;58875;51.996;4.504;2022-11-20T03:35:33;-0.38;77.13
71173;DHT22;58875;51.996;4.504;2022-11-20T03:37:59;-0.33;77.56
71173;DHT22;58875;51.996;4.504;2022-11-20T03:40:24;-0.32;77.76
71173;DHT22;58875;51.996;4.504;2022-11-20T03:42:50;-0.29;77.92
71173;DHT22;58875;51.996;4.504;2022-11-20T03:45:17;-0.38;77.84
71173;DHT22;58875;51.996;4.504;2022-11-20T03:47:44;-0.35;77.86
71173;DHT22;58875;51.996;4.504;2022-11-20T03:50:12;-0.38;77.71
71173;DHT22;58875;51.996;4.504;2022-11-20T03:52:40;-0.36;78.12
71173;DHT22;58875;51.996;4.504;2022-11-20T03:55:06;-0.36;78.28
71173;DHT22;58875;51.996;4.504;2022-11-20T03:57:32;-0.31;78.26
71173;DHT22;58875;51.996;4.504;2022-11-20T03:59:58;-0.22;78.32
71173;DHT22;58875;51.996;4.504;2022-11-20T04:02:23;-0.22;78.23
71173;DHT22;58875;51.996;4.504;2022-11-20T04:04:49;-0.26;78.33
71173;DHT22;58875;51.996;4.504;2022-11-20T04:07:15;-0.35;78.77
71173;DHT22;58875;51.996;4.504;2022-11-20T04:09:40;-0.36;78.99
71173;DHT22;58875;51.996;4.504;2022-11-20T04:12:06;-0.36;79.20
71173;DHT22;58875;51.996;4.504;2022-11-20T04:14:31;-0.32;78.92
71173;DHT22;58875;51.996;4.504;2022-11-20T04:16:57;-0.25;78.79
71173;DHT22;58875;51.996;4.504;2022-11-20T04:19:22;-0.21;78.70
71173;DHT22;58875;51.996;4.504;2022-11-20T04:21:48;-0.25;78.42
71173;DHT22;58875;51.996;4.504;2022-11-20T04:24:13;-0.33;78.48
71173;DHT22;58875;51.996;4.504;2022-11-20T04:26:40;-0.36;78.86
71173;DHT22;58875;51.996;4.504;2022-11-20T04:29:05;-0.35;78.93
71173;DHT22;58875;51.996;4.504;2022-11-20T04:31:33;-0.33;78.99
71173;DHT22;58875;51.996;4.504;2022-11-20T04:34:05;-0.35;79.11
71173;DHT22;58875;51.996;4.504;2022-11-20T04:36:31;-0.31;78.90
71173;DHT22;58875;51.996;4.504;2022-11-20T04:38:59;-0.36;79.11
71173;DHT22;58875;51.996;4.504;2022-11-20T04:41:27;-0.35;79.30
71173;DHT22;58875;51.996;4.504;2022-11-20T04:43:56;-0.31;79.03
71173;DHT22;58875;51.996;4.504;2022-11-20T04:46:26;-0.36;78.57
71173;DHT22;58875;51.996;4.504;2022-11-20T04:48:52;-0.35;78.88
71173;DHT22;58875;51.996;4.504;2022-11-20T04:51:18;-0.31;78.98
71173;DHT22;58875;51.996;4.504;2022-11-20T04:53:43;-0.23;78.83
71173;DHT22;58875;51.996;4.504;2022-11-20T04:56:11;-0.22;78.57
71173;DHT22;58875;51.996;4.504;2022-11-20T04:58:37;-0.28;78.50
71173;DHT22;58875;51.996;4.504;2022-11-20T05:01:06;-0.23;78.48
71173;DHT22;58875;51.996;4.504;2022-11-20T05:03:35;-0.31;78.46
71173;DHT22;58875;51.996;4.504;2022-11-20T05:06:02;-0.26;78.39
71173;DHT22;58875;51.996;4.504;2022-11-20T05:08:29;-0.26;78.30
71173;DHT22;58875;51.996;4.504;2022-11-20T05:11:03;-0.31;78.43
71173;DHT22;58875;51.996;4.504;2022-11-20T05:13:29;-0.29;78.27
71173;DHT22;58875;51.996;4.504;2022-11-20T05:15:55;-0.29;78.44
71173;DHT22;58875;51.996;4.504;2022-11-20T05:18:20;-0.36;78.16
71173;DHT22;58875;51.996;4.504;2022-11-20T05:20:46;-0.35;78.17
71173;DHT22;58875;51.996;4.504;2022-11-20T05:23:12;-0.36;78.10
71173;DHT22;58875;51.996;4.504;2022-11-20T05:25:39;-0.35;78.28
71173;DHT22;58875;51.996;4.504;2022-11-20T05:28:04;-0.39;78.34
71173;DHT22;58875;51.996;4.504;2022-11-20T05:30:30;-0.39;78.12
71173;DHT22;58875;51.996;4.504;2022-11-20T05:32:56;-0.46;78.57
71173;DHT22;58875;51.996;4.504;2022-11-20T05:35:21;-0.46;78.83
71173;DHT22;58875;51.996;4.504;2022-11-20T05:37:47;-0.45;78.75
71173;DHT22;58875;51.996;4.504;2022-11-20T05:40:13;-0.43;79.07
71173;DHT22;58875;51.996;4.504;2022-11-20T05:42:38;-0.39;78.74
71173;DHT22;58875;51.996;4.504;2022-11-20T05:45:05;-0.36;78.99
71173;DHT22;58875;51.996;4.504;2022-11-20T05:47:33;-0.38;79.15
71173;DHT22;58875;51.996;4.504;2022-11-20T05:49:59;-0.36;79.29
71173;DHT22;58875;51.996;4.504;2022-11-20T05:52:28;-0.35;79.44
71173;DHT22;58875;51.996;4.504;2022-11-20T05:54:53;-0.32;79.53
71173;DHT22;58875;51.996;4.504;2022-11-20T05:57:19;-0.28;79.40
71173;DHT22;58875;51.996;4.504;2022-11-20T05:59:44;-0.25;79.28
71173;DHT22;58875;51.996;4.504;2022-11-20T06:02:10;-0.29;79.31
71173;DHT22;58875;51.996;4.504;2022-11-20T06:04:36;-0.32;79.69
71173;DHT22;58875;51.996;4.504;2022-11-20T06:07:02;-0.33;79.81
71173;DHT22;58875;51.996;4.504;2022-11-20T06:09:28;-0.26;79.37
71173;DHT22;58875;51.996;4.504;2022-11-20T06:11:53;-0.35;79.57
71173;DHT22;58875;51.996;4.504;2022-11-20T06:14:19;-0.32;79.82
71173;DHT22;58875;51.996;4.504;2022-11-20T06:16:44;-0.28;79.74
71173;DHT22;58875;51.996;4.504;2022-11-20T06:19:10;-0.31;79.57
71173;DHT22;58875;51.996;4.504;2022-11-20T06:21:35;-0.21;79.93
71173;DHT22;58875;51.996;4.504;2022-11-20T06:24:01;-0.11;79.85
71173;DHT22;58875;51.996;4.504;2022-11-20T06:26:27;-0.10;79.77
71173;DHT22;58875;51.996;4.504;2022-11-20T06:28:57;-0.11;79.87
71173;DHT22;58875;51.996;4.504;2022-11-20T06:31:25;-0.07;80.11
71173;DHT22;58875;51.996;4.504;2022-11-20T06:33:52;-0.07;80.12
71173;DHT22;58875;51.996;4.504;2022-11-20T06:36:20;-0.07;80.27
71173;DHT22;58875;51.996;4.504;2022-11-20T06:38:49;-0.02;80.41
71173;DHT22;58875;51.996;4.504;2022-11-20T06:41:19;0.00;80.43
71173;DHT22;58875;51.996;4.504;2022-11-20T06:43:45;0.07;80.47
71173;DHT22;58875;51.996;4.504;2022-11-20T06:46:14;0.16;80.58
71173;DHT22;58875;51.996;4.504;2022-11-20T06:48:40;0.12;80.95
71173;DHT22;58875;51.996;4.504;2022-11-20T06:51:07;0.17;80.90
71173;DHT22;58875;51.996;4.504;2022-11-20T06:53:33;0.12;81.17
71173;DHT22;58875;51.996;4.504;2022-11-20T06:55:59;0.21;81.29
71173;DHT22;58875;51.996;4.504;2022-11-20T06:58:29;0.33;81.16
71173;DHT22;58875;51.996;4.504;2022-11-20T07:01:05;0.39;81.14
71173;DHT22;58875;51.996;4.504;2022-11-20T07:03:31;0.41;81.12
71173;DHT22;58875;51.996;4.504;2022-11-20T07:06:00;0.49;81.21
71173;DHT22;58875;51.996;4.504;2022-11-20T07:08:26;0.56;81.02
71173;DHT22;58875;51.996;4.504;2022-11-20T07:10:52;0.54;80.95
71173;DHT22;58875;51.996;4.504;2022-11-20T07:13:19;0.60;80.67
71173;DHT22;58875;51.996;4.504;2022-11-20T07:15:47;0.57;80.22
71173;DHT22;58875;51.996;4.504;2022-11-20T07:18:12;0.49;80.43
71173;DHT22;58875;51.996;4.504;2022-11-20T07:20:38;0.47;80.88
71173;DHT22;58875;51.996;4.504;2022-11-20T07:23:03;0.57;81.06
71173;DHT22;58875;51.996;4.504;2022-11-20T07:25:29;0.62;80.73
71173;DHT22;58875;51.996;4.504;2022-11-20T07:27:59;0.64;80.63
71173;DHT22;58875;51.996;4.504;2022-11-20T07:30:27;0.71;80.48
71173;DHT22;58875;51.996;4.504;2022-11-20T07:32:54;0.72;80.50
71173;DHT22;58875;51.996;4.504;2022-11-20T07:35:20;0.78;80.42
71173;DHT22;58875;51.996;4.504;2022-11-20T07:37:47;0.75;80.31
71173;DHT22;58875;51.996;4.504;2022-11-20T07:40:14;0.81;80.45
71173;DHT22;58875;51.996;4.504;2022-11-20T07:42:50;0.91;80.37
71173;DHT22;58875;51.996;4.504;2022-11-20T07:45:17;0.99;79.84
71173;DHT22;58875;51.996;4.504;2022-11-20T07:47:43;0.91;79.92
71173;DHT22;58875;51.996;4.504;2022-11-20T07:50:09;0.91;80.27
71173;DHT22;58875;51.996;4.504;2022-11-20T07:52:35;1.01;80.13
71173;DHT22;58875;51.996;4.504;2022-11-20T07:55:00;1.02;80.15
71173;DHT22;58875;51.996;4.504;2022-11-20T07:57:26;1.05;79.91
71173;DHT22;58875;51.996;4.504;2022-11-20T07:59:51;1.09;80.27
71173;DHT22;58875;51.996;4.504;2022-11-20T08:02:17;1.13;80.41
71173;DHT22;58875;51.996;4.504;2022-11-20T08:04:42;1.21;80.11
71173;DHT22;58875;51.996;4.504;2022-11-20T08:07:09;1.35;80.01
71173;DHT22;58875;51.996;4.504;2022-11-20T08:09:34;1.38;79.70
71173;DHT22;58875;51.996;4.504;2022-11-20T08:12:00;1.33;79.68
71173;DHT22;58875;51.996;4.504;2022-11-20T08:14:44;1.36;79.87
71173;DHT22;58875;51.996;4.504;2022-11-20T08:17:09;1.35;80.05
71173;DHT22;58875;51.996;4.504;2022-11-20T08:19:35;1.42;79.78
71173;DHT22;58875;51.996;4.504;2022-11-20T08:22:01;1.40;80.25
71173;DHT22;58875;51.996;4.504;2022-11-20T08:24:26;1.57;80.07
71173;DHT22;58875;51.996;4.504;2022-11-20T08:26:52;1.54;79.63
71173;DHT22;58875;51.996;4.504;2022-11-20T08:29:20;1.54;79.73
71173;DHT22;58875;51.996;4.504;2022-11-20T08:31:46;1.59;79.98
71173;DHT22;58875;51.996;4.504;2022-11-20T08:34:12;1.68;79.95
71173;DHT22;58875;51.996;4.504;2022-11-20T08:36:38;1.68;79.61
71173;DHT22;58875;51.996;4.504;2022-11-20T08:39:03;1.63;79.90
71173;DHT22;58875;51.996;4.504;2022-11-20T08:41:32;1.68;80.00
71173;DHT22;58875;51.996;4.504;2022-11-20T08:44:06;1.78;80.06
71173;DHT22;58875;51.996;4.504;2022-11-20T08:46:35;1.93;79.97
71173;DHT22;58875;51.996;4.504;2022-11-20T08:49:06;2.00;79.78
71173;DHT22;58875;51.996;4.504;2022-11-20T08:51:33;2.00;79.32
71173;DHT22;58875;51.996;4.504;2022-11-20T08:53:58;2.05;79.49
71173;DHT22;58875;51.996;4.504;2022-11-20T08:56:24;2.08;79.43
71173;DHT22;58875;51.996;4.504;2022-11-20T08:58:52;2.15;79.61
71173;DHT22;58875;51.996;4.504;2022-11-20T09:01:22;2.24;79.38
71173;DHT22;58875;51.996;4.504;2022-11-20T09:03:49;2.24;79.40
71173;DHT22;58875;51.996;4.504;2022-11-20T09:06:15;2.36;79.44
71173;DHT22;58875;51.996;4.504;2022-11-20T09:08:41;2.38;78.70
71173;DHT22;58875;51.996;4.504;2022-11-20T09:11:08;2.36;78.99
71173;DHT22;58875;51.996;4.504;2022-11-20T09:13:35;2.42;79.29
71173;DHT22;58875;51.996;4.504;2022-11-20T09:16:07;2.46;79.17
71173;DHT22;58875;51.996;4.504;2022-11-20T09:18:34;2.52;79.24
71173;DHT22;58875;51.996;4.504;2022-11-20T09:21:09;2.59;79.36
71173;DHT22;58875;51.996;4.504;2022-11-20T09:23:37;2.69;78.95
71173;DHT22;58875;51.996;4.504;2022-11-20T09:26:13;2.73;78.72
71173;DHT22;58875;51.996;4.504;2022-11-20T09:28:39;2.72;78.96
71173;DHT22;58875;51.996;4.504;2022-11-20T09:31:07;2.76;79.30
71173;DHT22;58875;51.996;4.504;2022-11-20T09:33:32;2.90;79.38
71173;DHT22;58875;51.996;4.504;2022-11-20T09:36:00;2.97;79.29
71173;DHT22;58875;51.996;4.504;2022-11-20T09:38:25;2.96;79.26
71173;DHT22;58875;51.996;4.504;2022-11-20T09:41:03;2.96;79.13
71173;DHT22;58875;51.996;4.504;2022-11-20T09:48:45;3.14;78.61
71173;DHT22;58875;51.996;4.504;2022-11-20T09:51:28;3.11;79.03
71173;DHT22;58875;51.996;4.504;2022-11-20T09:56:41;3.13;79.12
71173;DHT22;58875;51.996;4.504;2022-11-20T09:59:49;3.13;79.29
71173;DHT22;58875;51.996;4.504;2022-11-20T10:05:19;3.18;78.99
71173;DHT22;58875;51.996;4.504;2022-11-20T10:11:00;3.15;79.17
71173;DHT22;58875;51.996;4.504;2022-11-20T10:14:00;3.13;79.66
71173;DHT22;58875;51.996;4.504;2022-11-20T10:19:34;3.20;79.93
71173;DHT22;58875;51.996;4.504;2022-11-20T10:25:32;3.08;80.56
71173;DHT22;58875;51.996;4.504;2022-11-20T10:31:37;3.10;81.52
71173;DHT22;58875;51.996;4.504;2022-11-20T10:34:22;3.11;81.63
71173;DHT22;58875;51.996;4.504;2022-11-20T10:37:04;3.07;81.76
71173;DHT22;58875;51.996;4.504;2022-11-20T10:42:17;3.00;82.32
71173;DHT22;58875;51.996;4.504;2022-11-20T10:44:54;3.06;82.75
71173;DHT22;58875;51.996;4.504;2022-11-20T10:47:28;3.10;82.68
71173;DHT22;58875;51.996;4.504;2022-11-20T10:50:02;3.14;82.91
71173;DHT22;58875;51.996;4.504;2022-11-20T10:52:56;3.20;83.10
71173;DHT22;58875;51.996;4.504;2022-11-20T10:55:39;3.34;82.82
71173;DHT22;58875;51.996;4.504;2022-11-20T11:00:50;3.58;82.78
71173;DHT22;58875;51.996;4.504;2022-11-20T11:03:31;3.65;82.39
71173;DHT22;58875;51.996;4.504;2022-11-20T11:06:08;3.68;82.18
71173;DHT22;58875;51.996;4.504;2022-11-20T11:08:38;3.56;82.21
71173;DHT22;58875;51.996;4.504;2022-11-20T11:11:21;3.61;82.78
71173;DHT22;58875;51.996;4.504;2022-11-20T11:13:47;3.56;82.69
71173;DHT22;58875;51.996;4.504;2022-11-20T11:16:32;3.51;82.74
71173;DHT22;58875;51.996;4.504;2022-11-20T11:19:06;3.48;82.69
71173;DHT22;58875;51.996;4.504;2022-11-20T11:21:32;3.50;83.26
71173;DHT22;58875;51.996;4.504;2022-11-20T11:24:01;3.58;83.18
71173;DHT22;58875;51.996;4.504;2022-11-20T11:26:27;3.64;82.78
71173;DHT22;58875;51.996;4.504;2022-11-20T11:29:02;3.64;83.34
71173;DHT22;58875;51.996;4.504;2022-11-20T11:31:31;3.66;83.21
71173;DHT22;58875;51.996;4.504;2022-11-20T11:34:23;3.64;83.16
71173;DHT22;58875;51.996;4.504;2022-11-20T11:37:17;3.56;83.41
71173;DHT22;58875;51.996;4.504;2022-11-20T11:39:44;3.54;83.94
71173;DHT22;58875;51.996;4.504;2022-11-20T11:42:17;3.59;84.19
71173;DHT22;58875;51.996;4.504;2022-11-20T11:44:46;3.75;84.04
71173;DHT22;58875;51.996;4.504;2022-11-20T11:47:36;3.79;83.72
71173;DHT22;58875;51.996;4.504;2022-11-20T11:53:05;4.03;83.82
71173;DHT22;58875;51.996;4.504;2022-11-20T11:58:33;4.24;83.69
71173;DHT22;58875;51.996;4.504;2022-11-20T12:03:37;4.38;83.27
71173;DHT22;58875;51.996;4.504;2022-11-20T12:06:12;4.46;83.09
71173;DHT22;58875;51.996;4.504;2022-11-20T12:08:53;4.48;83.06
71173;DHT22;58875;51.996;4.504;2022-11-20T12:11:47;4.50;83.14
71173;DHT22;58875;51.996;4.504;2022-11-20T12:14:34;4.53;83.08
71173;DHT22;58875;51.996;4.504;2022-11-20T12:17:02;4.57;83.00
71173;DHT22;58875;51.996;4.504;2022-11-20T12:19:34;4.60;83.05
71173;DHT22;58875;51.996;4.504;2022-11-20T12:22:33;4.68;83.08
71173;DHT22;58875;51.996;4.504;2022-11-20T12:30:26;4.68;83.06
71173;DHT22;58875;51.996;4.504;2022-11-20T12:35:44;4.71;82.83
71173;DHT22;58875;51.996;4.504;2022-11-20T12:54:04;4.65;83.71
71173;DHT22;58875;51.996;4.504;2022-11-20T13:07:28;4.72;83.87
71173;DHT22;58875;51.996;4.504;2022-11-20T13:09:55;4.67;84.12
71173;DHT22;58875;51.996;4.504;2022-11-20T13:12:35;4.61;84.41
71173;DHT22;58875;51.996;4.504;2022-11-20T13:15:54;4.57;84.79
71173;DHT22;58875;51.996;4.504;2022-11-20T13:18:13;4.64;84.69
71173;DHT22;58875;51.996;4.504;2022-11-20T13:20:44;4.64;84.68
71173;DHT22;58875;51.996;4.504;2022-11-20T13:23:11;4.64;84.86
71173;DHT22;58875;51.996;4.504;2022-11-20T13:25:47;4.69;85.00
71173;DHT22;58875;51.996;4.504;2022-11-20T13:30:52;4.62;85.53
71173;DHT22;58875;51.996;4.504;2022-11-20T13:33:36;4.60;85.51
71173;DHT22;58875;51.996;4.504;2022-11-20T13:36:06;4.61;85.64
71173;DHT22;58875;51.996;4.504;2022-11-20T13:38:50;4.60;85.40
71173;DHT22;58875;51.996;4.504;2022-11-20T13:41:32;4.50;85.82
71173;DHT22;58875;51.996;4.504;2022-11-20T13:44:13;4.54;86.00
71173;DHT22;58875;51.996;4.504;2022-11-20T13:46:45;4.62;85.83
71173;DHT22;58875;51.996;4.504;2022-11-20T14:00:16;4.44;86.52
71173;DHT22;58875;51.996;4.504;2022-11-20T14:02:44;4.41;86.58
71173;DHT22;58875;51.996;4.504;2022-11-20T14:05:22;4.40;86.92
71173;DHT22;58875;51.996;4.504;2022-11-20T14:07:51;4.43;86.96
71173;DHT22;58875;51.996;4.504;2022-11-20T14:10:23;4.38;87.20
71173;DHT22;58875;51.996;4.504;2022-11-20T14:12:49;4.40;87.33
71173;DHT22;58875;51.996;4.504;2022-11-20T14:15:31;4.36;87.30
71173;DHT22;58875;51.996;4.504;2022-11-20T14:18:13;4.33;87.50
71173;DHT22;58875;51.996;4.504;2022-11-20T14:20:40;4.34;87.65
71173;DHT22;58875;51.996;4.504;2022-11-20T14:23:10;4.43;87.73
71173;DHT22;58875;51.996;4.504;2022-11-20T14:25:36;4.47;87.55
71173;DHT22;58875;51.996;4.504;2022-11-20T14:28:03;4.46;87.79
71173;DHT22;58875;51.996;4.504;2022-11-20T14:30:48;4.50;87.65
71173;DHT22;58875;51.996;4.504;2022-11-20T14:33:14;4.50;87.86
71173;DHT22;58875;51.996;4.504;2022-11-20T14:35:46;4.53;87.87
71173;DHT22;58875;51.996;4.504;2022-11-20T14:38:14;4.58;87.81
71173;DHT22;58875;51.996;4.504;2022-11-20T14:40:41;4.67;87.64
71173;DHT22;58875;51.996;4.504;2022-11-20T14:43:25;4.58;87.75
71173;DHT22;58875;51.996;4.504;2022-11-20T14:48:38;4.50;88.38
71173;DHT22;58875;51.996;4.504;2022-11-20T14:51:04;4.48;88.43
71173;DHT22;58875;51.996;4.504;2022-11-20T14:53:30;4.57;88.38
71173;DHT22;58875;51.996;4.504;2022-11-20T14:55:58;4.58;88.43
71173;DHT22;58875;51.996;4.504;2022-11-20T14:58:27;4.58;88.31
71173;DHT22;58875;51.996;4.504;2022-11-20T15:01:02;4.65;88.16
71173;DHT22;58875;51.996;4.504;2022-11-20T15:03:38;4.69;88.14
71173;DHT22;58875;51.996;4.504;2022-11-20T15:06:06;4.68;88.10
71173;DHT22;58875;51.996;4.504;2022-11-20T15:08:34;4.69;88.49
71173;DHT22;58875;51.996;4.504;2022-11-20T15:11:00;4.74;88.31
71173;DHT22;58875;51.996;4.504;2022-11-20T15:13:33;4.79;88.22
71173;DHT22;58875;51.996;4.504;2022-11-20T15:16:17;4.85;88.07
71173;DHT22;58875;51.996;4.504;2022-11-20T15:18:43;4.84;87.99
71173;DHT22;58875;51.996;4.504;2022-11-20T15:21:14;4.78;88.17
71173;DHT22;58875;51.996;4.504;2022-11-20T15:23:40;4.77;88.10
71173;DHT22;58875;51.996;4.504;2022-11-20T15:26:07;4.79;88.20
71173;DHT22;58875;51.996;4.504;2022-11-20T15:28:44;4.75;88.14
71173;DHT22;58875;51.996;4.504;2022-11-20T15:31:15;4.69;88.46
71173;DHT22;58875;51.996;4.504;2022-11-20T15:33:41;4.72;88.28
71173;DHT22;58875;51.996;4.504;2022-11-20T15:36:08;4.75;88.45
71173;DHT22;58875;51.996;4.504;2022-11-20T15:38:35;4.72;88.43
71173;DHT22;58875;51.996;4.504;2022-11-20T15:41:00;4.72;88.52
71173;DHT22;58875;51.996;4.504;2022-11-20T15:43:26;4.77;88.54
71173;DHT22;58875;51.996;4.504;2022-11-20T15:46:11;4.82;88.53
71173;DHT22;58875;51.996;4.504;2022-11-20T15:48:42;4.84;88.31
71173;DHT22;58875;51.996;4.504;2022-11-20T15:53:37;4.79;88.46
71173;DHT22;58875;51.996;4.504;2022-11-20T15:56:04;4.88;88.58
71173;DHT22;58875;51.996;4.504;2022-11-20T15:58:31;4.98;88.28
71173;DHT22;58875;51.996;4.504;2022-11-20T16:00:57;5.11;88.12
71173;DHT22;58875;51.996;4.504;2022-11-20T16:03:23;5.12;87.95
71173;DHT22;58875;51.996;4.504;2022-11-20T16:05:48;5.16;87.77
71173;DHT22;58875;51.996;4.504;2022-11-20T16:08:14;5.16;87.72
71173;DHT22;58875;51.996;4.504;2022-11-20T16:10:41;5.18;87.58
71173;DHT22;58875;51.996;4.504;2022-11-20T16:13:16;5.15;87.19
71173;DHT22;58875;51.996;4.504;2022-11-20T16:16:07;5.09;87.38
71173;DHT22;58875;51.996;4.504;2022-11-20T16:18:34;5.11;87.15
71173;DHT22;58875;51.996;4.504;2022-11-20T16:21:00;4.91;87.19
71173;DHT22;58875;51.996;4.504;2022-11-20T16:23:26;4.79;87.79
71173;DHT22;58875;51.996;4.504;2022-11-20T16:25:52;4.79;88.06
71173;DHT22;58875;51.996;4.504;2022-11-20T16:28:18;4.81;88.21
71173;DHT22;58875;51.996;4.504;2022-11-20T16:30:44;4.87;88.27
71173;DHT22;58875;51.996;4.504;2022-11-20T16:33:13;4.93;88.17
71173;DHT22;58875;51.996;4.504;2022-11-20T16:35:39;5.04;88.04
71173;DHT22;58875;51.996;4.504;2022-11-20T16:38:05;5.07;87.66
71173;DHT22;58875;51.996;4.504;2022-11-20T16:40:30;5.05;87.58
71173;DHT22;58875;51.996;4.504;2022-11-20T16:42:56;4.99;87.71
71173;DHT22;58875;51.996;4.504;2022-11-20T16:45:22;5.00;87.70
71173;DHT22;58875;51.996;4.504;2022-11-20T16:47:48;5.00;87.53
71173;DHT22;58875;51.996;4.504;2022-11-20T16:50:14;4.98;87.64
71173;DHT22;58875;51.996;4.504;2022-11-20T16:52:41;4.93;87.69
71173;DHT22;58875;51.996;4.504;2022-11-20T16:55:06;4.93;87.86
71173;DHT22;58875;51.996;4.504;2022-11-20T16:57:32;4.99;87.74
71173;DHT22;58875;51.996;4.504;2022-11-20T16:59:59;4.81;87.91
71173;DHT22;58875;51.996;4.504;2022-11-20T17:02:25;4.77;88.38
71173;DHT22;58875;51.996;4.504;2022-11-20T17:04:51;4.71;88.57
71173;DHT22;58875;51.996;4.504;2022-11-20T17:07:17;4.79;88.65
71173;DHT22;58875;51.996;4.504;2022-11-20T17:09:43;4.92;88.38
71173;DHT22;58875;51.996;4.504;2022-11-20T17:12:08;5.00;88.02
71173;DHT22;58875;51.996;4.504;2022-11-20T17:14:34;5.04;87.95
71173;DHT22;58875;51.996;4.504;2022-11-20T17:17:00;5.09;87.99
71173;DHT22;58875;51.996;4.504;2022-11-20T17:19:26;5.09;87.88
71173;DHT22;58875;51.996;4.504;2022-11-20T17:21:51;5.08;87.82
71173;DHT22;58875;51.996;4.504;2022-11-20T17:24:17;5.19;87.76
71173;DHT22;58875;51.996;4.504;2022-11-20T17:26:44;5.23;87.53
71173;DHT22;58875;51.996;4.504;2022-11-20T17:29:16;5.28;87.39
71173;DHT22;58875;51.996;4.504;2022-11-20T17:31:42;5.26;87.19
71173;DHT22;58875;51.996;4.504;2022-11-20T17:34:13;5.26;87.05